Friday, November 24, 2017, 12:42 AM EST
Back to Local

KVSF, Hartness State Airport

Location: Perkinsville, VT, United States Lat: 43.35
Local Time: 12:42 AM EST ( 5:42 GMT) Lon: -72.517
Time Zone: US/Eastern Elev: 577 ft

Show me the last for .
Show Decoded

2017-11-23 23:54 METAR KVSF 240454Z AUTO 00000KT 10SM OVC065 M02/M06 A2995 RMK AO2 SLP151
                 T10221061 400111044 =
2017-11-23 22:54 METAR KVSF 240354Z AUTO 00000KT 10SM OVC090 M02/M06 A2995 RMK AO2 SLP152
                 T10221061 =
2017-11-23 21:54 METAR KVSF 240254Z AUTO 00000KT 10SM OVC100 M02/M06 A2996 RMK AO2 SLP152
                 T10221061 58005 =
2017-11-23 20:54 METAR KVSF 240154Z AUTO 00000KT 10SM OVC100 M02/M07 A2996 RMK AO2 SLP155
                 T10221067 =
2017-11-23 19:54 METAR KVSF 240054Z AUTO 00000KT 10SM OVC100 M03/M06 A2997 RMK AO2 SLP157
                 T10281061 =
2017-11-23 18:54 METAR KVSF 232354Z AUTO 00000KT 10SM OVC100 M02/M07 A2997 RMK AO2 SLP157
                 T10221072 10006 21028 58005 =
2017-11-23 17:54 METAR KVSF 232254Z AUTO 00000KT 10SM CLR M02/M08 A2998 RMK AO2 SLP160 T10221078
                 =
2017-11-23 16:54 METAR KVSF 232154Z AUTO 00000KT 10SM FEW095 M01/M09 A2998 RMK AO2 SLP160
                 T10061089 =
2017-11-23 15:54 METAR KVSF 232054Z AUTO VRB03KT 10SM FEW095 M01/M09 A2998 RMK AO2 SLP162
                 T10061089 56006 =
2017-11-23 14:54 METAR KVSF 231954Z AUTO VRB03KT 10SM BKN100 00/M09 A2998 RMK AO2 SLP162
                 T00001094 =
2017-11-23 13:54 METAR KVSF 231854Z AUTO VRB03KT 10SM BKN110 00/M09 A2999 RMK AO2 SLP163
                 T00001094 =
2017-11-23 12:54 METAR KVSF 231754Z AUTO 31008KT 10SM OVC120 00/M11 A3000 RMK AO2 SLP167
                 T00001106 10011 21044 58020 =
2017-11-23 11:54 METAR KVSF 231654Z AUTO 26009KT 10SM CLR 00/M11 A3002 RMK AO2 SLP173 T00001106 =
2017-11-23 10:54 METAR KVSF 231554Z AUTO 35008KT 320V020 10SM CLR M01/M10 A3004 RMK AO2 SLP181
                 T10111100 =
2017-11-23 09:54 METAR KVSF 231454Z AUTO 32007KT 280V360 10SM CLR M02/M09 A3006 RMK AO2 SLP187
                 T10221094 58002 =
2017-11-23 08:54 METAR KVSF 231354Z AUTO VRB06KT 10SM CLR M03/M10 A3006 RMK AO2 SLP187 T10281100
                 =
2017-11-23 07:54 METAR KVSF 231254Z AUTO 32007KT 10SM CLR M03/M09 A3007 RMK AO2 SLP190 T10331094
                 =
2017-11-23 06:54 METAR KVSF 231154Z AUTO VRB03KT 10SM CLR M04/M09 A3007 RMK AO2 SLP189 70005
                 T10391089 11006 21039 51013 =
2017-11-23 05:54 METAR KVSF 231054Z AUTO 30008KT 10SM FEW027 M03/M09 A3006 RMK AO2 SLP185
                 T10331089 =
2017-11-23 04:54 METAR KVSF 230954Z AUTO 27004KT 10SM SCT027 M03/M08 A3004 RMK AO2 SLP180
                 T10281083 =
2017-11-23 03:54 METAR KVSF 230854Z AUTO VRB05KT 10SM FEW027 M02/M08 A3003 RMK AO2 SLP175
                 T10221078 50006 =
2017-11-23 02:54 METAR KVSF 230754Z AUTO 32007G17KT 10SM OVC032 M02/M08 A3004 RMK AO2 SLP178
                 T10221078 =
2017-11-23 01:54 METAR KVSF 230654Z AUTO 29010G16KT 10SM OVC033 M02/M07 A3003 RMK AO2 SLP175
                 T10171072 =
2017-11-23 00:54 METAR KVSF 230554Z AUTO 30012G17KT 10SM OVC037 M01/M07 A3001 RMK AO2 SLP169
                 60000 T10061072 10028 21006 51012 =

Support USWX by starting your Amazon purchase here.